LZB weather

Lorenzos de Baja Airport
Ensenada, Baja California, Mexico

Public forecast

Using degrees Celsius for public forecast. Weather courtesy of forecast.io.

Closest aviation weather report (METAR) to Lorenzos de Baja Airport

Report is more than 6 hours old.

Closest report is Ensenada International Airport, 84.7 nm (156.9 km) NNW. Retrieved 2016/05/26 15:00 UTC (4 years ago):

MMES 261500Z VRB02KT 7SM OVC020 14/10 A3008 RMK 8/5// HZY

Closest aviation forecast (TAF) to Lorenzos de Baja Airport

Closest forecast is Nogales International Airport, 269.9 nm (499.9 km) ENE. Retrieved 2020-06-01 00:33 UTC (3 hours ago):

TAF KOLS 312331Z 0100/0124 20010G18KT P6SM VCTS SCT060 BKN090CB BKN140 TEMPO 0100/0102 VRB20G35KT 6SM TSRA SCT060 BKN090CB FM010300 18006KT P6SM BKN100 BKN150 FM010600 VRB03KT P6SM SCT110 FM012000 22012G20KT P6SM SCT090 BKN200